Monday, April 23, 2018, 1:56 AM GMT
Back to Local

CYCX, Gagetown Can-Mil

Location: , , Canada Lat: 45.833
Local Time: 1:56 AM GMT ( 1:56 GMT) Lon: -66.433
Time Zone: GMT Elev: 167 ft

Show me the last for .
Show Decoded

2018-04-23 01:00 METAR CYCX 230100Z 29007KT 15SM SKC 05/M09 A3027 RMK DA-1330FT SLP253 =
2018-04-23 00:00 METAR CYCX 230000Z 28005KT 15SM FEW240 06/M10 A3024 RMK CI1 DA-1185FT SLP244 =
2018-04-22 23:00 METAR CYCX 222300Z 31007KT 15SM SKC 08/M10 A3022 RMK DA-904FT SLP238 =
2018-04-22 22:00 METAR CYCX 222200Z 30012KT 15SM SKC 10/M10 A3021 RMK DA-663FT SLP234 =
2018-04-22 21:00 METAR CYCX 222100Z 30014KT 15SM SKC 11/M10 A3020 RMK DA-566FT SLP231 =
2018-04-22 20:00 METAR CYCX 222000Z 30011G17KT 15SM SKC 11/M09 A3020 RMK DA-528FT SLP228 =
2018-04-22 19:00 METAR CYCX 221900Z 29012KT 15SM FEW240 12/M09 A3019 RMK CI1 DA-482FT SLP226 =
2018-04-22 18:00 METAR CYCX 221800Z 30010G17KT 15SM FEW240 11/M09 A3019 RMK CI1 DA-516FT SLP226 =
2018-04-22 17:00 METAR CYCX 221700Z 31011KT 270V020 15SM FEW240 11/M08 A3019 RMK CI1 DA-501FT CI
                 TR SLP226 =
2018-04-22 16:00 METAR CYCX 221600Z 33011KT 15SM SCT240 10/M09 A3020 RMK CI3 DA-625FT SLP228 =
2018-04-22 15:00 METAR CYCX 221500Z 31006G15KT 15SM BKN240 09/M09 A3019 RMK CI6 DA-770FT SLP228 =
2018-04-22 14:00 METAR CYCX 221400Z 28010KT 15SM BKN240 08/M07 A3020 RMK CI7 DA-874FT SLP229 =
2018-04-22 13:00 METAR CYCX 221300Z 27007KT 15SM SCT230 06/M06 A3020 RMK CI4 DA-1177FT SLP230 =
2018-04-22 12:00 METAR CYCX 221200Z 30006KT 15SM FEW230 04/M05 A3020 RMK CI2 DA-1435FT SLP230 =
2018-04-22 11:00 METAR CYCX 221100Z 25003KT 15SM FEW220 01/M05 A3019 RMK CI2 DA-1797FT SLP228 =
2018-04-22 10:00 METAR CYCX 221000Z 24003KT 15SM FEW092 FEW220 M02/M05 A3018 RMK AC1CI2 DA-2181FT
                 SLP222 =
2018-04-22 09:00 METAR CYCX 220900Z 25005KT 15SM FEW080 FEW210 M02/M05 A3016 RMK AC1CI2 DA-2147FT
                 SLP217 =
2018-04-22 08:00 METAR CYCX 220800Z 27004KT 15SM FEW080 BKN210 M02/M05 A3015 RMK AC2CI2 DA-2147FT
                 SLP213 =
2018-04-22 07:00 METAR CYCX 220700Z 26004KT 15SM FEW080 BKN210 M01/M06 A3015 RMK AC2CI2 DA-1932FT
                 SLP212 =
2018-04-22 06:00 METAR CYCX 220600Z 25005KT 15SM FEW080 BKN210 00/M06 A3015 RMK AC2CI2 DA-1831FT
                 SLP210 =
2018-04-22 05:00 METAR CYCX 220500Z 26005KT 15SM FEW080 SCT210 01/M06 A3015 RMK AC2CI2 DA-1707FT
                 SLP213 =
2018-04-22 04:00 METAR CYCX 220400Z 25005KT 15SM FEW080 SCT210 02/M07 A3016 RMK AC1CI2 DA-1672FT
                 SLP214 =
2018-04-22 03:00 METAR CYCX 220300Z 30002KT 15SM FEW080 M00/M06 A3016 RMK AC2 DA-1883FT SLP215 =
2018-04-22 02:00 METAR CYCX 220200Z 29002KT 15SM FEW080 01/M08 A3015 RMK AC2 DA-1737FT SLP213 =

Support USWX by starting your Amazon purchase here.